Latest Weather Observations for Giles*

IDD60801

Issued at 9:31 am CST Monday 29 August 2016 (issued every 30 minutes, with the page automatically refreshed every 10 minutes)

About weather observations | Map of weather stations | Latest weather observations for NT | Other Formats
Station Details ID: 013017 Name: GILES METEOROLOGICAL OFFICE Lat: -25.03 Lon: 128.30 Height: 598.0 m
Data from the previous 72 hours. | See also: Recent months at Giles*

* Giles observations are collected in the South Australia time zone, which includes daylight saving in the summer period. Therefore, Rain since 9am value is with respect to South Australia local time.

Date/Time
CST
Temp
°C
App
Temp
°C
Dew
Point
°C
Rel
Hum
%
Delta-T
°C
Wind Press
QNH
hPa
Press
MSL
hPa
Rain since
9am
mm
Dir  Spd
km/h
Gust
km/h
Spd
kts
Gust
kts
29/09:00am 11.3 8.8 9.6 89 0.9 E 13 17 7 9 1014.2 1012.8 5.6
29/08:30am 10.8 8.2 9.4 91 0.7 E 13 17 7 9 1013.6 1012.3 5.6
29/08:00am 10.7 8.5 9.5 92 0.6 E 11 15 6 8 1013.5 1012.2 5.6
29/07:30am 10.3 7.4 9.5 95 0.4 SE 15 17 8 9 1013.2 1011.9 5.6
29/07:00am 10.3 8.1 9.3 93 0.5 SE 11 17 6 9 1013.4 1012.1 5.6
29/06:30am 10.2 6.5 9.4 95 0.4 S 19 26 10 14 1012.9 1011.5 5.2
29/06:00am 10.7 7.1 9.9 95 0.4 S 19 28 10 15 1012.6 1011.2 4.6
29/05:30am 13.4 13.6 13.0 97 0.2 SSW 4 13 2 7 1011.6 1010.2 3.0
29/05:00am 13.3 13.0 12.8 97 0.3 W 6 9 3 5 1011.5 1010.1 3.0
29/04:30am 13.5 13.2 12.8 95 0.4 WSW 6 9 3 5 1011.4 1010.0 2.6
29/04:00am 13.9 13.4 12.8 93 0.6 WNW 7 11 4 6 1011.4 1010.0 1.2
29/03:30am 14.4 12.7 12.3 87 1.2 WNW 13 17 7 9 1012.3 1010.9 0.4
29/03:00am 14.6 11.8 11.5 82 1.7 WSW 17 28 9 15 1011.6 1010.2 0.4
29/02:30am 15.2 11.9 12.7 85 1.4 W 22 43 12 23 1012.4 1011.0 0.4
29/02:00am 17.8 16.4 12.2 70 3.2 W 11 15 6 8 1011.5 1010.1 0.0
29/01:30am 17.7 15.9 12.1 69 3.2 WNW 13 20 7 11 1012.0 1010.6 0.0
29/01:00am 16.8 15.7 12.0 73 2.7 NNW 9 9 5 5 1011.7 1010.4 0.0
29/12:30am 17.7 16.6 12.1 69 3.2 WNW 9 11 5 6 1012.1 1010.7 0.0
29/12:00am 17.8 16.3 12.0 69 3.3 NW 11 15 6 8 1012.3 1010.9 0.0
 
Date/Time
CST
Temp
°C
App
Temp
°C
Dew
Point
°C
Rel
Hum
%
Delta-T
°C
Wind Press
QNH
hPa
Press
MSL
hPa
Rain since
9am
mm
Dir  Spd
km/h
Gust
km/h
Spd
kts
Gust
kts
28/11:30pm 18.1 17.4 12.1 68 3.4 WNW 7 9 4 5 1012.3 1010.9 0.0
28/11:00pm 18.9 17.8 11.9 64 4.0 W 9 11 5 6 1012.3 1010.9 0.0
28/10:30pm 20.3 17.4 9.8 51 5.8 WNW 15 22 8 12 1012.4 1011.0 0.0
28/10:00pm 20.6 17.2 9.1 47 6.3 NNW 17 22 9 12 1012.2 1010.8 0.0
28/09:30pm 20.3 17.2 8.9 48 6.2 NNW 15 20 8 11 1011.8 1010.5 0.0
28/09:00pm 19.9 17.2 8.8 48 6.0 NW 13 17 7 9 1011.6 1010.2 0.0
28/08:30pm 20.7 17.3 9.0 47 6.4 NNW 17 24 9 13 1011.3 1009.9 0.0
28/08:00pm 21.3 17.5 9.1 45 6.7 NNW 19 26 10 14 1011.1 1009.7 0.0
28/07:30pm 21.9 17.6 9.2 44 7.0 NNW 22 30 12 16 1010.6 1009.2 0.0
28/07:00pm 22.7 17.9 8.9 41 7.6 NNW 24 35 13 19 1010.3 1008.8 0.0
28/06:30pm 23.2 16.2 8.6 39 8.0 NNW 35 48 19 26 1010.0 1008.6 0.0
28/06:11pm 23.8 17.8 8.8 38 8.3 NNW 30 48 16 26 1010.0 1008.6 0.0
28/06:00pm 23.8 17.5 8.8 38 8.3 NNW 32 46 17 25 1009.9 1008.5 0.0
28/05:40pm 24.6 18.7 9.0 37 8.7 NW 30 48 16 26 1009.8 1008.4 0.0
28/05:30pm 24.4 18.0 8.7 36 8.7 NW 32 44 17 24 1009.7 1008.3 0.0
28/05:00pm 23.6 18.3 8.5 38 8.3 NNW 26 35 14 19 1009.7 1008.3 0.0
28/04:30pm 23.4 17.8 8.7 39 8.1 NNW 28 43 15 23 1009.9 1008.5 0.0
28/04:00pm 23.4 16.9 8.2 37 8.3 NNW 32 44 17 24 1009.9 1008.5 0.0
28/03:40pm 23.6 17.5 8.2 37 8.4 NW 30 48 16 26 1010.0 1008.6 0.0
28/03:30pm 23.4 16.9 8.2 37 8.3 NW 32 46 17 25 1010.2 1008.7 0.0
28/03:22pm 23.4 17.7 8.2 37 8.3 NW 28 46 15 25 1010.2 1008.7 0.0
28/03:00pm 23.0 16.8 7.9 38 8.2 NW 30 46 16 25 1010.4 1009.0 0.0
28/02:30pm 22.8 15.6 7.6 37 8.2 NW 35 57 19 31 1010.6 1009.2 0.0
28/02:05pm 23.0 16.4 7.6 37 8.3 NW 32 50 17 27 1010.9 1009.5 0.0
28/02:00pm 23.2 16.3 7.4 36 8.5 NW 33 46 18 25 1010.9 1009.5 0.0
28/01:30pm 23.4 16.1 7.2 35 8.7 NNW 35 54 19 29 1011.1 1009.7 0.0
28/01:00pm 23.8 17.2 7.8 36 8.7 NNW 32 50 17 27 1011.4 1010.0 0.0
28/12:40pm 23.8 17.0 7.5 35 8.8 NNW 33 52 18 28 1011.8 1010.5 0.0
28/12:30pm 23.2 16.5 7.4 36 8.5 NNW 32 44 17 24 1012.1 1010.7 0.0
28/12:00pm 23.5 17.5 7.0 34 8.8 NNW 28 46 15 25 1012.5 1011.1 0.0
28/11:30am 24.1 17.5 6.1 31 9.5 N 30 41 16 22 1012.5 1011.1 0.0
28/11:00am 21.6 14.9 5.7 35 8.2 N 30 39 16 21 1012.8 1011.4 0.0
28/10:30am 19.8 13.6 7.7 45 6.4 N 30 41 16 22 1013.6 1012.3 0.0
28/10:00am 21.2 14.5 3.9 32 8.6 N 28 41 15 22 1013.5 1012.2 0.0
28/09:30am 20.6 14.5 2.6 30 8.7 N 24 35 13 19 1013.9 1012.5 0.0
28/09:00am 20.5 13.3 0.7 26 9.2 N 28 35 15 19 1013.9 1012.5 0.2
28/08:30am 19.9 13.9 -1.2 24 9.4 N 20 28 11 15 1013.4 1012.1 0.2
28/08:00am 19.4 13.6 -1.8 24 9.3 N 19 28 10 15 1013.4 1012.1 0.2
28/07:30am 19.4 12.9 -2.6 22 9.5 N 22 30 12 16 1013.1 1011.7 0.2
28/07:00am 19.1 12.1 -3.3 21 9.5 N 24 33 13 18 1012.9 1011.5 0.2
28/06:30am 19.6 13.0 -3.5 20 9.8 N 22 37 12 20 1012.7 1011.3 0.2
28/06:00am 19.7 13.7 -2.8 21 9.7 N 19 24 10 13 1012.4 1011.0 0.2
28/05:30am 20.2 13.9 -3.8 19 10.2 N 20 28 11 15 1012.2 1010.8 0.2
28/05:00am 20.2 13.5 -3.8 19 10.2 N 22 33 12 18 1012.2 1010.8 0.2
28/04:30am 20.0 13.7 -3.9 19 10.1 N 20 32 11 17 1012.1 1010.7 0.2
28/04:00am 20.0 12.9 -4.3 19 10.2 N 24 33 13 18 1012.2 1010.8 0.2
28/03:30am 20.2 13.1 -4.3 19 10.3 N 24 33 13 18 1012.5 1011.1 0.2
28/03:00am 20.1 13.0 -4.6 18 10.3 N 24 35 13 19 1012.4 1011.0 0.2
28/02:30am 20.3 12.0 -5.0 18 10.5 N 30 41 16 22 1012.6 1011.2 0.2
28/02:00am 20.7 12.4 -5.0 17 10.7 N 30 43 16 23 1012.6 1011.2 0.2
28/01:30am 21.7 12.4 -5.4 16 11.3 N 35 52 19 28 1012.7 1011.3 0.2
28/01:04am 22.2 12.8 -6.1 14 11.7 NNE 35 54 19 29 1012.7 1011.3 0.2
28/01:00am 22.1 13.1 -5.9 15 11.6 NNE 33 48 18 26 1012.7 1011.3 0.2
28/12:30am 21.9 12.2 -5.9 15 11.5 N 37 54 20 29 1012.9 1011.5 0.2
28/12:04am 22.4 12.2 -6.6 14 11.9 N 39 57 21 31 1013.0 1011.6 0.2
28/12:00am 22.4 12.3 -6.1 14 11.8 N 39 54 21 29 1013.0 1011.6 0.2
 
Date/Time
CST
Temp
°C
App
Temp
°C
Dew
Point
°C
Rel
Hum
%
Delta-T
°C
Wind Press
QNH
hPa
Press
MSL
hPa
Rain since
9am
mm
Dir  Spd
km/h
Gust
km/h
Spd
kts
Gust
kts
27/11:37pm 22.4 13.4 -6.1 14 11.8 NNE 33 52 18 28 1013.5 1012.2 0.2
27/11:30pm 22.4 13.1 -5.6 15 11.7 NNE 35 48 19 26 1013.5 1012.2 0.2
27/11:00pm 22.4 13.7 -5.6 15 11.7 NNE 32 44 17 24 1014.0 1012.6 0.2
27/10:46pm 22.7 13.7 -6.3 14 12.0 NNE 33 52 18 28 1014.1 1012.7 0.2
27/10:30pm 22.2 14.2 -5.6 15 11.6 NNE 28 43 15 23 1014.3 1012.9 0.2
27/10:16pm 22.6 14.6 -6.1 14 11.9 NNE 28 46 15 25 1014.4 1013.0 0.2
27/10:00pm 22.3 14.3 -5.4 15 11.6 NNE 28 37 15 20 1014.6 1013.2 0.2
27/09:30pm 22.7 15.1 -5.3 15 11.8 NNE 26 41 14 22 1014.7 1013.4 0.2
27/09:00pm 22.5 15.7 -4.8 16 11.6 NNE 22 30 12 16 1014.8 1013.5 0.2
27/08:30pm 22.2 15.9 -4.1 17 11.3 NNE 20 28 11 15 1014.8 1013.5 0.2
27/08:00pm 21.7 16.4 -3.5 18 10.9 NNE 15 20 8 11 1014.6 1013.2 0.2
27/07:30pm 22.0 16.2 -4.6 16 11.3 N 17 20 9 11 1014.4 1013.0 0.2
27/07:00pm 23.3 17.4 -5.7 14 12.2 N 17 22 9 12 1014.2 1012.8 0.2
27/06:30pm 24.9 18.2 -7.7 11 13.4 NNW 20 28 11 15 1014.1 1012.7 0.2
27/06:00pm 25.6 17.8 -7.2 11 13.7 NNW 26 39 14 21 1014.2 1012.8 0.2
27/05:30pm 26.3 18.9 -7.9 10 14.2 NNW 24 39 13 21 1014.1 1012.7 0.2
27/05:00pm 26.2 18.3 -8.9 9 14.3 NNW 26 37 14 20 1014.1 1012.7 0.2
27/04:30pm 26.5 18.2 -8.5 9 14.4 N 28 41 15 22 1014.3 1012.9 0.2
27/04:00pm 26.2 17.6 -8.3 9 14.2 N 30 41 16 22 1014.6 1013.2 0.2
27/03:44pm 26.3 17.7 -8.6 9 14.3 NNW 30 50 16 27 1014.8 1013.5 0.2
27/03:30pm 25.8 17.6 -8.4 10 14.0 N 28 41 15 22 1015.1 1013.8 0.2
27/03:00pm 26.0 17.0 -8.4 10 14.1 N 32 46 17 25 1015.4 1014.1 0.2
27/02:35pm 25.4 17.2 -7.9 10 13.7 N 28 46 15 25 1015.9 1014.5 0.2
27/02:30pm 25.0 16.1 -7.4 11 13.4 N 32 46 17 25 1016.1 1014.7 0.2
27/02:00pm 25.1 16.2 -7.7 11 13.5 N 32 46 17 25 1016.8 1015.5 0.2
27/01:30pm 24.2 15.7 -7.0 12 12.9 N 30 46 16 25 1017.4 1016.0 0.2
27/01:29pm 24.6 16.4 -7.6 11 13.2 N 28 46 15 25 1017.4 1016.0 0.2
27/01:00pm 23.1 14.7 -5.9 14 12.1 N 30 39 16 21 1018.0 1016.7 0.2
27/12:30pm 22.2 13.5 -5.2 15 11.5 N 32 41 17 22 1018.5 1017.2 0.2
27/12:12pm 22.3 14.4 -5.0 15 11.5 N 28 46 15 25 1018.8 1017.5 0.2
27/12:00pm 21.2 12.9 -4.9 17 10.9 N 30 41 16 22 1018.9 1017.6 0.2
27/11:30am 20.2 11.5 -5.4 17 10.5 N 32 44 17 24 1019.2 1017.9 0.2
27/11:00am 19.8 10.4 -6.0 17 10.4 N 35 44 19 24 1019.4 1018.1 0.2
27/10:30am 18.5 9.8 -5.3 19 9.6 N 32 43 17 23 1019.6 1018.3 0.0
27/10:00am 18.1 10.9 -5.3 20 9.4 N 24 37 13 20 1019.7 1018.4 0.0
27/09:30am 17.4 11.0 -4.5 22 8.9 NNE 20 30 11 16 1019.4 1018.1 0.0
27/09:00am 16.5 9.0 -4.7 23 8.5 NNE 26 39 14 21 1019.2 1017.9 0.0
27/08:30am 16.0 8.0 -5.4 22 8.4 NNE 28 41 15 22 1018.8 1017.5 0.0
27/08:00am 15.1 8.9 -5.1 24 7.9 NNE 19 28 10 15 1018.7 1017.4 0.0
27/07:30am 13.8 9.3 -3.4 30 6.9 NE 11 19 6 10 1018.6 1017.3 0.0
27/07:00am 12.2 9.4 -3.6 33 6.2 ENE 2 7 1 4 1018.5 1017.2 0.0
27/06:30am 12.4 8.2 -4.0 31 6.4 NE 9 11 5 6 1018.2 1016.9 0.0
27/06:00am 13.3 8.3 -4.4 29 6.9 NNE 13 19 7 10 1018.2 1016.9 0.0
27/05:30am 12.6 8.3 -4.9 29 6.7 NNE 9 15 5 8 1018.3 1017.0 0.0
27/05:00am 11.5 6.5 -4.5 32 6.1 NE 13 17 7 9 1018.1 1016.8 0.0
27/04:30am 10.5 5.1 -4.7 34 5.7 E 15 19 8 10 1018.5 1017.2 0.0
27/04:00am 11.6 6.1 -5.1 30 6.3 E 15 20 8 11 1018.7 1017.4 0.0
27/03:30am 12.2 6.3 -5.3 29 6.6 E 17 20 9 11 1018.8 1017.5 0.0
27/03:00am 12.9 7.4 -5.2 28 6.9 ENE 15 19 8 10 1018.9 1017.6 0.0
27/02:30am 13.0 8.6 -5.4 27 7.0 E 9 13 5 7 1019.4 1018.1 0.0
27/02:00am 11.6 7.6 -5.2 30 6.3 E 7 11 4 6 1019.7 1018.4 0.0
27/01:30am 11.1 7.2 -4.8 32 6.0 ENE 7 11 4 6 1020.0 1018.7 0.0
27/01:00am 11.2 6.9 -5.1 31 6.1 ENE 9 13 5 7 1020.1 1018.8 0.0
27/12:30am 13.3 8.1 -5.7 26 7.2 ENE 13 19 7 10 1020.2 1018.9 0.0
27/12:00am 13.3 8.1 -5.7 26 7.2 NE 13 19 7 10 1020.4 1019.1 0.0
 
Date/Time
CST
Temp
°C
App
Temp
°C
Dew
Point
°C
Rel
Hum
%
Delta-T
°C
Wind Press
QNH
hPa
Press
MSL
hPa
Rain since
9am
mm
Dir  Spd
km/h
Gust
km/h
Spd
kts
Gust
kts
26/11:30pm 12.2 7.0 -6.2 27 6.8 ENE 13 17 7 9 1020.4 1019.1 0.0
26/11:00pm 12.6 7.4 -5.8 27 6.9 ENE 13 15 7 8 1020.5 1019.3 0.0
26/10:30pm 12.5 8.2 -5.1 29 6.7 ENE 9 11 5 6 1021.0 1019.7 0.0
26/10:00pm 13.8 9.0 -5.6 25 7.4 NE 11 17 6 9 1021.0 1019.7 0.0
26/09:30pm 13.9 8.8 -5.4 26 7.4 ENE 13 17 7 9 1020.7 1019.5 0.0
26/09:00pm 14.2 9.0 -5.7 24 7.6 NE 13 15 7 8 1020.7 1019.5 0.0
26/08:30pm 14.2 9.5 -4.8 26 7.4 NE 11 11 6 6 1020.9 1019.6 0.0
26/08:00pm 14.9 10.2 -5.1 25 7.8 NE 11 11 6 6 1020.4 1019.1 0.0
26/07:30pm 14.7 10.5 -4.2 27 7.5 NE 9 11 5 6 1020.2 1018.9 0.0
26/07:00pm 16.2 11.9 -4.5 24 8.3 NE 9 13 5 7 1019.8 1018.5 0.0
26/06:30pm 17.8 13.1 -5.0 20 9.2 NNE 11 17 6 9 1019.8 1018.5 0.0
26/06:00pm 18.8 13.5 -7.0 16 10.1 NE 13 20 7 11 1019.4 1018.1 0.0
26/05:30pm 18.9 13.6 -6.8 17 10.1 NE 13 24 7 13 1019.1 1017.8 0.0
26/05:00pm 19.5 14.1 -8.5 14 10.7 NNE 13 20 7 11 1019.1 1017.8 0.0
26/04:30pm 19.4 14.6 -6.5 17 10.3 NE 11 22 6 12 1018.9 1017.6 0.0
26/04:00pm 19.5 14.3 -5.7 17 10.2 NE 13 20 7 11 1019.1 1017.8 0.0
26/03:30pm 19.7 14.2 -5.2 18 10.2 NE 15 26 8 14 1019.4 1018.1 0.0
26/03:00pm 19.1 14.0 -5.3 18 9.9 ENE 13 22 7 12 1019.7 1018.4 0.0
26/02:30pm 18.6 12.8 -4.6 20 9.5 NNE 17 24 9 13 1020.3 1019.0 0.0
26/02:00pm 18.5 12.6 -5.3 19 9.6 E 17 26 9 14 1020.7 1019.5 0.0
26/01:30pm 18.9 14.3 -4.3 20 9.6 NE 11 28 6 15 1021.3 1020.0 0.0
26/01:00pm 17.5 12.5 -3.9 23 8.8 NNW 13 20 7 11 1022.0 1020.8 0.0
26/12:30pm 17.0 11.7 -3.7 24 8.5 E 15 22 8 12 1022.7 1021.4 0.0
26/12:00pm 16.4 11.9 -2.9 26 8.0 NE 11 20 6 11 1023.1 1021.8 0.0
26/11:30am 15.7 10.1 -2.6 28 7.6 ENE 17 24 9 13 1023.6 1022.4 0.0
26/11:00am 15.2 9.7 -2.0 30 7.2 ENE 17 26 9 14 1023.7 1022.5 0.0
26/10:30am 14.3 8.5 -1.8 33 6.7 ENE 19 28 10 15 1023.6 1022.4 0.0
26/10:00am 12.9 6.4 -2.4 34 6.2 ENE 22 32 12 17 1023.8 1022.6 0.0

Other Formats:

Comma delimited format used in spreadsheet applications
http://www.bom.gov.au/fwo/IDD60801/IDD60801.94461.axf

JavaScript Object Notation format (JSON) in row-major order
http://www.bom.gov.au/fwo/IDD60801/IDD60801.94461.json